Time;durP1;ratioP1;P1;durP2;ratioP2;P2;SDS_P1;SDS_P2;PMS_P1;PMS_P2;Temp;Humidity;BMP_temperature;BMP_pressure;BME280_temperature;BME280_humidity;BME280_pressure;Samples;Min_cycle;Max_cycle;Signal;HPM_P1;HPM_P2
2023/09/23 00:01:33;;;;;;;0.38;0.30;;;;;;;;;;4999091;28;20424;-71
2023/09/23 00:03:59;;;;;;;0.10;0.10;;;;;;;;;;4998776;28;20581;-71
2023/09/23 00:06:24;;;;;;;0.88;0.38;;;;;;;;;;4998577;28;20046;-71
2023/09/23 00:08:50;;;;;;;0.20;0.20;;;;;;;;;;4999023;28;20132;-71
2023/09/23 00:11:16;;;;;;;0.10;0.10;;;;;;;;;;4998335;28;20737;-71
2023/09/23 00:13:42;;;;;;;0.35;0.30;;;;;;;;;;4998781;28;20046;-71
2023/09/23 00:16:09;;;;;;;0.20;0.20;;;;;;;;;;4998784;28;20056;-72
2023/09/23 00:18:34;;;;;;;0.30;0.30;;;;;;;;;;4998646;28;20101;-71
2023/09/23 00:21:00;;;;;;;0.52;0.20;;;;;;;;;;4997884;28;20484;-72
2023/09/23 00:23:25;;;;;;;3.45;0.40;;;;;;;;;;4998188;28;20141;-71
2023/09/23 00:25:51;;;;;;;1.25;0.40;;;;;;;;;;4997373;28;20522;-71
2023/09/23 00:28:16;;;;;;;0.30;0.30;;;;;;;;;;4998138;28;20037;-69
2023/09/23 00:30:43;;;;;;;0.55;0.50;;;;;;;;;;4980747;28;20041;-71
2023/09/23 00:33:10;;;;;;;0.30;0.30;;;;;;;;;;4996270;28;20105;-71
2023/09/23 00:35:36;;;;;;;0.50;0.30;;;;;;;;;;4996349;28;20052;-70
2023/09/23 00:38:04;;;;;;;0.30;0.30;;;;;;;;;;4998063;28;20052;-71
2023/09/23 00:40:38;;;;;;;1.20;0.28;;;;;;;;;;4980761;28;20507;-71
2023/09/23 00:43:12;;;;;;;0.30;0.30;;;;;;;;;;4980468;28;20518;-71
2023/09/23 00:45:48;;;;;;;0.30;0.30;;;;;;;;;;4980442;28;20132;-71
2023/09/23 00:48:18;;;;;;;0.50;0.20;;;;;;;;;;4979696;28;20073;-71
2023/09/23 00:50:44;;;;;;;0.28;0.28;;;;;;;;;;4980514;28;20038;-72
2023/09/23 00:53:10;;;;;;;0.55;0.40;;;;;;;;;;4995876;28;20052;-70
2023/09/23 00:55:42;;;;;;;1.88;0.30;;;;;;;;;;4998729;28;20050;-70
2023/09/23 00:58:14;;;;;;;2.92;0.52;;;;;;;;;;4997492;28;20045;-69
2023/09/23 01:00:44;;;;;;;;;;;;;;;;;;4982208;28;20034;-71
2023/09/23 01:03:10;;;;;;;0.38;0.20;;;;;;;;;;4998243;28;19932;-71
2023/09/23 01:05:36;;;;;;;0.35;0.32;;;;;;;;;;4996997;28;20116;-71
2023/09/23 01:08:06;;;;;;;0.40;0.30;;;;;;;;;;4995987;28;20081;-71
2023/09/23 01:10:31;;;;;;;1.48;0.50;;;;;;;;;;4997732;28;20049;-71
2023/09/23 01:12:57;;;;;;;0.95;0.40;;;;;;;;;;4995910;28;20095;-70
2023/09/23 01:15:28;;;;;;;0.57;0.40;;;;;;;;;;4979426;28;20050;-71
2023/09/23 01:17:54;;;;;;;0.63;0.47;;;;;;;;;;4996420;28;20046;-71
2023/09/23 01:20:21;;;;;;;0.40;0.40;;;;;;;;;;4997400;28;20104;-71
2023/09/23 01:22:47;;;;;;;0.20;0.20;;;;;;;;;;4996399;28;20050;-72
2023/09/23 01:25:16;;;;;;;0.40;0.35;;;;;;;;;;4995810;28;20514;-71
2023/09/23 01:27:42;;;;;;;0.90;0.40;;;;;;;;;;4996293;28;20046;-71
2023/09/23 01:30:08;;;;;;;0.30;0.30;;;;;;;;;;4996515;28;20474;-69
2023/09/23 01:32:48;;;;;;;0.75;0.45;;;;;;;;;;4996211;28;20049;-70
2023/09/23 01:35:16;;;;;;;0.65;0.50;;;;;;;;;;4993857;28;20882;-70
2023/09/23 01:37:46;;;;;;;0.60;0.50;;;;;;;;;;4995140;28;20569;-70
2023/09/23 01:40:18;;;;;;;2.25;0.40;;;;;;;;;;4995709;28;20046;-70
2023/09/23 01:42:51;;;;;;;0.70;0.35;;;;;;;;;;4997908;28;20065;-71
2023/09/23 01:45:19;;;;;;;1.35;0.60;;;;;;;;;;4997018;28;20052;-71
2023/09/23 01:47:44;;;;;;;2.45;0.50;;;;;;;;;;4979771;28;20046;-70
2023/09/23 01:50:11;;;;;;;0.85;0.43;;;;;;;;;;4995509;28;20060;-70
2023/09/23 01:52:42;;;;;;;0.55;0.40;;;;;;;;;;4997020;28;20060;-69
2023/09/23 01:55:11;;;;;;;0.40;0.40;;;;;;;;;;4994859;28;20041;-71
2023/09/23 01:57:40;;;;;;;0.38;0.38;;;;;;;;;;4979820;28;20050;-70
2023/09/23 02:00:08;;;;;;;2.20;0.70;;;;;;;;;;4995814;28;20129;-70
2023/09/23 02:02:42;;;;;;;0.40;0.40;;;;;;;;;;4996168;28;20057;-69
2023/09/23 02:05:07;;;;;;;0.45;0.45;;;;;;;;;;4997005;28;20133;-70
2023/09/23 02:07:33;;;;;;;0.30;0.30;;;;;;;;;;4995654;28;20452;-71
2023/09/23 02:09:58;;;;;;;0.93;0.50;;;;;;;;;;4983153;28;20470;-70
2023/09/23 02:12:24;;;;;;;0.68;0.50;;;;;;;;;;4983650;28;20065;-70
2023/09/23 02:14:53;;;;;;;0.60;0.60;;;;;;;;;;5000698;28;20049;-70
2023/09/23 02:17:19;;;;;;;0.65;0.40;;;;;;;;;;4998740;28;20133;-69
2023/09/23 02:19:48;;;;;;;1.08;0.60;;;;;;;;;;4983308;28;20046;-70
2023/09/23 02:22:16;;;;;;;2.15;0.38;;;;;;;;;;5001047;28;20045;-70
2023/09/23 02:24:41;;;;;;;0.73;0.52;;;;;;;;;;4999000;28;20107;-69
2023/09/23 02:27:06;;;;;;;0.57;0.50;;;;;;;;;;5000445;28;20050;-70
2023/09/23 02:29:33;;;;;;;0.45;0.45;;;;;;;;;;4999838;28;20053;-69
2023/09/23 02:32:00;;;;;;;3.13;0.70;;;;;;;;;;5000346;28;20112;-69
2023/09/23 02:34:28;;;;;;;1.25;0.50;;;;;;;;;;5000651;28;20513;-69
2023/09/23 02:36:54;;;;;;;0.55;0.50;;;;;;;;;;4998298;28;20131;-68
2023/09/23 02:39:20;;;;;;;0.75;0.70;;;;;;;;;;4998974;28;20045;-68
2023/09/23 02:41:47;;;;;;;0.57;0.50;;;;;;;;;;4982986;28;21122;-69
2023/09/23 02:44:25;;;;;;;0.93;0.50;;;;;;;;;;4997965;28;21167;-69
2023/09/23 02:46:52;;;;;;;0.50;0.50;;;;;;;;;;4998246;28;20046;-68
2023/09/23 02:49:19;;;;;;;0.52;0.50;;;;;;;;;;4999931;28;20616;-68
2023/09/23 02:51:45;;;;;;;0.50;0.50;;;;;;;;;;4998308;28;20053;-68
2023/09/23 02:54:15;;;;;;;0.60;0.60;;;;;;;;;;4998500;28;20592;-69
2023/09/23 02:56:41;;;;;;;2.35;0.45;;;;;;;;;;5000798;28;20046;-69
2023/09/23 02:59:21;;;;;;;0.45;0.40;;;;;;;;;;4981163;28;20053;-68
2023/09/23 03:01:53;;;;;;;0.57;0.57;;;;;;;;;;4966296;28;20119;-69
2023/09/23 03:04:32;;;;;;;1.88;0.47;;;;;;;;;;4998363;28;20088;-69
2023/09/23 03:07:00;;;;;;;0.75;0.47;;;;;;;;;;4981996;28;20092;-69
2023/09/23 03:09:31;;;;;;;1.02;0.40;;;;;;;;;;4998273;28;20117;-69
2023/09/23 03:11:58;;;;;;;0.83;0.60;;;;;;;;;;4999748;28;20053;-69
2023/09/23 03:14:28;;;;;;;0.95;0.50;;;;;;;;;;4998211;28;20052;-69
2023/09/23 03:16:57;;;;;;;0.47;0.47;;;;;;;;;;4998438;28;20069;-69
2023/09/23 03:19:25;;;;;;;0.63;0.60;;;;;;;;;;4997100;28;20037;-68
2023/09/23 03:21:55;;;;;;;1.40;0.55;;;;;;;;;;4999477;28;20050;-68
2023/09/23 03:24:25;;;;;;;0.52;0.50;;;;;;;;;;4999509;28;20140;-70
2023/09/23 03:26:53;;;;;;;2.50;0.32;;;;;;;;;;4998067;28;20046;-69
2023/09/23 03:29:18;;;;;;;0.45;0.30;;;;;;;;;;4997351;28;20147;-70
2023/09/23 03:31:44;;;;;;;2.33;0.60;;;;;;;;;;4997205;28;20104;-69
2023/09/23 03:34:13;;;;;;;0.40;0.40;;;;;;;;;;4998594;28;20145;-69
2023/09/23 03:36:41;;;;;;;1.98;0.50;;;;;;;;;;4994737;28;20044;-70
2023/09/23 03:39:08;;;;;;;0.30;0.30;;;;;;;;;;4996541;28;20081;-69
2023/09/23 03:41:37;;;;;;;2.05;0.52;;;;;;;;;;4997687;28;20107;-69
2023/09/23 03:44:07;;;;;;;0.30;0.30;;;;;;;;;;4980604;28;20046;-68
2023/09/23 03:46:33;;;;;;;0.43;0.43;;;;;;;;;;4998341;28;20089;-69
2023/09/23 03:49:00;;;;;;;0.57;0.40;;;;;;;;;;4981242;28;21236;-69
2023/09/23 03:51:26;;;;;;;0.40;0.40;;;;;;;;;;4997252;28;20061;-69
2023/09/23 03:53:51;;;;;;;0.30;0.30;;;;;;;;;;4997597;28;20054;-70
2023/09/23 03:56:19;;;;;;;0.40;0.40;;;;;;;;;;4998864;28;20054;-70
2023/09/23 03:58:44;;;;;;;0.28;0.28;;;;;;;;;;4997403;28;20084;-69
2023/09/23 04:01:13;;;;;;;0.93;0.60;;;;;;;;;;4996644;28;20050;-70
2023/09/23 04:03:42;;;;;;;2.65;0.30;;;;;;;;;;4980021;28;20041;-69
2023/09/23 04:06:08;;;;;;;0.88;0.47;;;;;;;;;;4997791;28;20132;-70
2023/09/23 04:08:34;;;;;;;0.38;0.38;;;;;;;;;;4997353;28;20124;-69
2023/09/23 04:11:04;;;;;;;0.52;0.52;;;;;;;;;;4998146;28;20200;-69
2023/09/23 04:13:30;;;;;;;0.80;0.40;;;;;;;;;;4998287;28;20116;-70
2023/09/23 04:16:00;;;;;;;0.30;0.30;;;;;;;;;;4997769;28;20502;-70
2023/09/23 04:18:30;;;;;;;0.68;0.60;;;;;;;;;;4998819;28;20524;-70
2023/09/23 04:20:56;;;;;;;0.50;0.50;;;;;;;;;;4998032;28;20477;-70
2023/09/23 04:23:21;;;;;;;1.08;0.40;;;;;;;;;;4997086;28;20050;-70
2023/09/23 04:25:49;;;;;;;1.17;0.40;;;;;;;;;;4992662;28;20105;-70
2023/09/23 04:28:16;;;;;;;0.60;0.60;;;;;;;;;;4986517;28;20042;-69
2023/09/23 04:30:41;;;;;;;0.52;0.50;;;;;;;;;;4985538;28;20177;-71
2023/09/23 04:33:07;;;;;;;0.40;0.40;;;;;;;;;;4977514;28;20071;-69
2023/09/23 04:35:34;;;;;;;0.60;0.60;;;;;;;;;;4978281;28;20054;-69
2023/09/23 04:38:00;;;;;;;0.40;0.40;;;;;;;;;;4977207;28;20112;-69
2023/09/23 04:40:26;;;;;;;0.90;0.40;;;;;;;;;;4961785;28;20443;-69
2023/09/23 04:42:51;;;;;;;0.50;0.50;;;;;;;;;;4978671;28;20121;-69
2023/09/23 04:45:20;;;;;;;0.75;0.60;;;;;;;;;;4977051;28;20177;-69
2023/09/23 04:47:50;;;;;;;0.47;0.47;;;;;;;;;;4977797;28;20136;-69
2023/09/23 04:50:17;;;;;;;0.60;0.57;;;;;;;;;;4977857;28;20050;-69
2023/09/23 04:52:43;;;;;;;0.50;0.50;;;;;;;;;;4979209;28;20046;-69
2023/09/23 04:55:08;;;;;;;1.48;0.70;;;;;;;;;;4978593;28;20129;-70
2023/09/23 04:57:34;;;;;;;1.35;0.45;;;;;;;;;;4978443;28;20078;-70
2023/09/23 04:59:59;;;;;;;0.63;0.50;;;;;;;;;;4977875;28;20104;-70
2023/09/23 05:02:26;;;;;;;3.38;0.60;;;;;;;;;;4978078;28;20082;-70
2023/09/23 05:04:53;;;;;;;0.70;0.60;;;;;;;;;;4977989;28;20558;-70
2023/09/23 05:07:19;;;;;;;0.50;0.50;;;;;;;;;;4976431;28;20117;-70
2023/09/23 05:09:45;;;;;;;0.63;0.63;;;;;;;;;;4977968;28;20046;-71
2023/09/23 05:12:11;;;;;;;0.50;0.50;;;;;;;;;;4978456;28;20037;-70
2023/09/23 05:14:37;;;;;;;0.75;0.60;;;;;;;;;;4978675;28;20042;-70
2023/09/23 05:17:05;;;;;;;1.77;0.70;;;;;;;;;;4961572;28;20052;-70
2023/09/23 05:19:34;;;;;;;1.77;0.75;;;;;;;;;;4978899;28;22866;-70
2023/09/23 05:22:00;;;;;;;0.90;0.70;;;;;;;;;;4977200;28;20575;-70
2023/09/23 05:24:26;;;;;;;0.70;0.70;;;;;;;;;;4977426;28;20042;-70
2023/09/23 05:26:54;;;;;;;0.75;0.70;;;;;;;;;;4977783;28;20050;-69
2023/09/23 05:29:23;;;;;;;5.38;0.85;;;;;;;;;;4974614;28;20462;-70
2023/09/23 05:31:49;;;;;;;0.93;0.80;;;;;;;;;;4976763;28;20134;-71
2023/09/23 05:34:15;;;;;;;3.50;0.68;;;;;;;;;;4977279;28;20058;-71
2023/09/23 05:36:41;;;;;;;0.57;0.57;;;;;;;;;;4976420;28;20042;-70
2023/09/23 05:39:06;;;;;;;0.98;0.90;;;;;;;;;;4976683;28;20083;-71
2023/09/23 05:41:32;;;;;;;1.17;0.88;;;;;;;;;;4977035;28;20058;-70
2023/09/23 05:43:59;;;;;;;1.17;0.80;;;;;;;;;;4976984;28;20057;-70
2023/09/23 05:46:30;;;;;;;0.65;0.65;;;;;;;;;;4980317;28;20046;-70
2023/09/23 05:48:55;;;;;;;2.50;1.23;;;;;;;;;;4981429;28;20050;-70
2023/09/23 05:51:20;;;;;;;0.98;0.98;;;;;;;;;;4995677;28;20116;-73
2023/09/23 05:53:46;;;;;;;2.45;0.80;;;;;;;;;;4980930;28;20038;-73
2023/09/23 05:56:11;;;;;;;2.90;0.95;;;;;;;;;;4995320;28;20046;-73
2023/09/23 05:58:37;;;;;;;1.90;1.08;;;;;;;;;;4980222;28;20050;-73
2023/09/23 06:01:02;;;;;;;2.90;1.00;;;;;;;;;;4981306;28;20057;-72
2023/09/23 06:03:28;;;;;;;1.08;0.82;;;;;;;;;;4980004;28;20063;-73
2023/09/23 06:05:53;;;;;;;1.35;0.93;;;;;;;;;;4981401;28;20041;-72
2023/09/23 06:08:19;;;;;;;4.53;1.00;;;;;;;;;;4978774;28;20058;-73
2023/09/23 06:10:44;;;;;;;2.97;1.38;;;;;;;;;;4980044;28;20035;-73
2023/09/23 06:13:10;;;;;;;2.05;1.10;;;;;;;;;;4979153;28;20078;-73
2023/09/23 06:15:35;;;;;;;1.25;1.15;;;;;;;;;;4979076;28;20046;-73
2023/09/23 06:18:01;;;;;;;2.00;1.10;;;;;;;;;;4978992;28;20120;-73
2023/09/23 06:20:26;;;;;;;0.90;0.90;;;;;;;;;;4979777;28;20046;-73
2023/09/23 06:22:52;;;;;;;1.50;1.15;;;;;;;;;;4979490;28;20049;-72
2023/09/23 06:25:17;;;;;;;1.10;1.00;;;;;;;;;;4991998;28;20045;-72
2023/09/23 06:27:43;;;;;;;2.85;1.10;;;;;;;;;;4976217;28;20078;-73
2023/09/23 06:30:09;;;;;;;2.03;1.10;;;;;;;;;;4973996;28;20058;-70
2023/09/23 06:32:35;;;;;;;4.90;1.27;;;;;;;;;;4979224;28;20082;-71
2023/09/23 06:35:01;;;;;;;1.25;1.10;;;;;;;;;;4978858;28;21204;-71
2023/09/23 06:37:27;;;;;;;1.05;1.05;;;;;;;;;;4975858;28;20054;-71
2023/09/23 06:39:52;;;;;;;1.25;1.15;;;;;;;;;;4978566;28;20046;-71
2023/09/23 06:42:18;;;;;;;2.10;1.20;;;;;;;;;;4977523;28;20141;-70
2023/09/23 06:44:44;;;;;;;1.48;1.23;;;;;;;;;;4976643;28;20407;-71
2023/09/23 06:47:09;;;;;;;1.90;1.52;;;;;;;;;;4979242;28;20092;-71
2023/09/23 06:49:35;;;;;;;8.23;1.33;;;;;;;;;;4978247;28;20161;-71
2023/09/23 06:52:00;;;;;;;3.13;1.45;;;;;;;;;;4980190;28;20038;-71
2023/09/23 06:54:26;;;;;;;2.55;1.42;;;;;;;;;;4992823;28;20500;-73
2023/09/23 06:56:55;;;;;;;1.17;1.05;;;;;;;;;;4979628;28;20046;-71
2023/09/23 06:59:21;;;;;;;1.50;1.40;;;;;;;;;;4979067;28;20054;-71
2023/09/23 07:01:46;;;;;;;2.10;1.13;;;;;;;;;;4995978;28;20109;-71
2023/09/23 07:04:12;;;;;;;2.33;1.35;;;;;;;;;;4961383;28;20141;-71
2023/09/23 07:06:38;;;;;;;1.75;1.25;;;;;;;;;;4980816;28;20132;-71
2023/09/23 07:09:04;;;;;;;1.63;1.17;;;;;;;;;;4981463;28;20058;-71
2023/09/23 07:11:30;;;;;;;1.40;1.30;;;;;;;;;;4977275;28;21659;-71
2023/09/23 07:13:58;;;;;;;1.48;1.23;;;;;;;;;;4977237;28;20060;-72
2023/09/23 07:16:23;;;;;;;1.35;1.05;;;;;;;;;;4978168;28;20105;-70
2023/09/23 07:18:50;;;;;;;1.13;1.00;;;;;;;;;;4978971;28;20530;-71
2023/09/23 07:21:16;;;;;;;5.35;1.35;;;;;;;;;;4992130;28;20113;-69
2023/09/23 07:23:41;;;;;;;2.08;1.42;;;;;;;;;;4979375;28;20046;-70
2023/09/23 07:26:06;;;;;;;2.60;1.65;;;;;;;;;;4977914;28;20146;-71
2023/09/23 07:28:32;;;;;;;2.35;1.17;;;;;;;;;;4978708;28;20046;-71
2023/09/23 07:30:57;;;;;;;1.60;0.90;;;;;;;;;;4978851;28;20426;-71
2023/09/23 07:33:23;;;;;;;1.10;0.98;;;;;;;;;;4991261;28;20042;-71
2023/09/23 07:35:48;;;;;;;0.85;0.77;;;;;;;;;;4978158;28;20057;-71
2023/09/23 07:38:13;;;;;;;0.70;0.70;;;;;;;;;;4976853;28;20460;-71
2023/09/23 07:40:40;;;;;;;0.70;0.70;;;;;;;;;;4978440;28;20049;-71
2023/09/23 07:43:07;;;;;;;1.25;0.57;;;;;;;;;;4977767;28;20503;-72
2023/09/23 07:45:33;;;;;;;1.77;0.90;;;;;;;;;;4976998;28;20046;-71
2023/09/23 07:47:58;;;;;;;1.02;0.93;;;;;;;;;;4976282;28;20137;-71
2023/09/23 07:50:24;;;;;;;0.88;0.70;;;;;;;;;;4974664;28;20104;-71
2023/09/23 07:52:49;;;;;;;2.00;0.90;;;;;;;;;;4976676;28;20133;-71
2023/09/23 07:55:15;;;;;;;2.15;0.70;;;;;;;;;;4975718;28;20069;-73
2023/09/23 07:57:40;;;;;;;3.10;1.10;;;;;;;;;;4977259;28;20137;-71
2023/09/23 08:00:09;;;;;;;0.85;0.70;;;;;;;;;;4977172;28;20050;-71
2023/09/23 08:02:37;;;;;;;;;;;;;;;;;;4992859;28;20050;-70
2023/09/23 08:05:04;;;;;;;0.70;0.70;;;;;;;;;;4962187;28;19924;-71
2023/09/23 08:07:32;;;;;;;0.98;0.63;;;;;;;;;;4977984;28;20151;-72
2023/09/23 08:09:59;;;;;;;0.60;0.60;;;;;;;;;;4996918;28;20530;-72
2023/09/23 08:12:24;;;;;;;1.25;0.60;;;;;;;;;;4997377;28;20052;-70
2023/09/23 08:14:51;;;;;;;2.40;0.60;;;;;;;;;;4998370;28;20749;-71
2023/09/23 08:17:17;;;;;;;1.15;0.70;;;;;;;;;;4995707;28;20514;-71
2023/09/23 08:19:44;;;;;;;0.50;0.50;;;;;;;;;;4997562;28;20050;-72
2023/09/23 08:22:09;;;;;;;1.10;0.70;;;;;;;;;;4996069;28;20050;-71
2023/09/23 08:24:36;;;;;;;1.25;0.80;;;;;;;;;;4997351;28;20042;-72
2023/09/23 08:27:04;;;;;;;1.35;0.80;;;;;;;;;;5012375;28;20052;-72
2023/09/23 08:29:29;;;;;;;1.00;0.90;;;;;;;;;;4993803;28;20132;-72
2023/09/23 08:31:55;;;;;;;1.15;0.73;;;;;;;;;;4997406;28;20132;-71
2023/09/23 08:34:20;;;;;;;0.73;0.70;;;;;;;;;;4995998;28;20046;-72
2023/09/23 08:36:46;;;;;;;1.10;0.70;;;;;;;;;;4997507;28;20038;-72
2023/09/23 08:39:11;;;;;;;0.80;0.60;;;;;;;;;;4995547;28;20621;-74
2023/09/23 08:41:37;;;;;;;0.60;0.60;;;;;;;;;;4996515;28;20100;-74
2023/09/23 08:44:07;;;;;;;1.25;0.50;;;;;;;;;;4995365;28;20068;-73
2023/09/23 08:46:32;;;;;;;0.80;0.80;;;;;;;;;;4996264;28;20065;-74
2023/09/23 08:48:59;;;;;;;0.65;0.65;;;;;;;;;;4977583;28;20060;-73
2023/09/23 08:51:25;;;;;;;1.35;0.75;;;;;;;;;;4994479;28;20064;-73
2023/09/23 08:53:52;;;;;;;0.60;0.50;;;;;;;;;;4997431;28;20042;-74
2023/09/23 08:56:19;;;;;;;1.27;0.40;;;;;;;;;;4994433;28;20045;-74
2023/09/23 08:58:45;;;;;;;3.20;0.60;;;;;;;;;;4997525;28;20069;-73
2023/09/23 09:01:11;;;;;;;2.08;0.60;;;;;;;;;;4995304;28;20591;-75
2023/09/23 09:03:37;;;;;;;0.70;0.60;;;;;;;;;;4996171;28;20050;-74
2023/09/23 09:06:03;;;;;;;0.63;0.60;;;;;;;;;;4995296;28;20044;-75
2023/09/23 09:08:31;;;;;;;0.70;0.60;;;;;;;;;;4979151;28;20046;-75
2023/09/23 09:10:59;;;;;;;0.73;0.68;;;;;;;;;;4995300;28;20046;-74
2023/09/23 09:13:24;;;;;;;0.88;0.70;;;;;;;;;;5011111;28;20058;-75
2023/09/23 09:15:50;;;;;;;2.40;0.90;;;;;;;;;;4995781;28;20045;-74
2023/09/23 09:18:17;;;;;;;1.48;0.50;;;;;;;;;;4997157;28;20047;-75
2023/09/23 09:20:42;;;;;;;0.63;0.52;;;;;;;;;;4985381;28;20046;-73
2023/09/23 09:23:12;;;;;;;2.25;0.80;;;;;;;;;;5000333;28;20069;-73
2023/09/23 09:25:37;;;;;;;1.25;0.47;;;;;;;;;;5018330;28;20069;-73
2023/09/23 09:28:03;;;;;;;0.50;0.50;;;;;;;;;;5003434;28;20609;-73
2023/09/23 09:30:29;;;;;;;2.35;0.93;;;;;;;;;;5008332;28;21055;-73
2023/09/23 09:33:00;;;;;;;1.10;0.70;;;;;;;;;;5004967;28;20775;-73
2023/09/23 09:35:27;;;;;;;0.70;0.70;;;;;;;;;;5002296;28;20577;-72
2023/09/23 09:37:55;;;;;;;0.93;0.70;;;;;;;;;;5003318;28;20049;-72
2023/09/23 09:40:21;;;;;;;0.50;0.50;;;;;;;;;;5000919;28;20208;-73
2023/09/23 09:42:53;;;;;;;1.42;0.60;;;;;;;;;;5003321;28;20132;-73
2023/09/23 09:45:20;;;;;;;2.25;0.75;;;;;;;;;;5015765;28;20058;-73
2023/09/23 09:47:48;;;;;;;0.45;0.45;;;;;;;;;;5017487;28;20506;-73
2023/09/23 09:50:14;;;;;;;0.77;0.68;;;;;;;;;;4984069;28;20046;-73
2023/09/23 09:52:43;;;;;;;0.60;0.60;;;;;;;;;;5000271;28;20052;-72
2023/09/23 09:55:15;;;;;;;1.80;0.70;;;;;;;;;;5000095;28;20148;-72
2023/09/23 09:57:41;;;;;;;0.70;0.60;;;;;;;;;;5001091;28;20112;-73
2023/09/23 10:00:27;;;;;;;1.00;0.90;;;;;;;;;;5002850;28;20686;-73
2023/09/23 10:03:00;;;;;;;1.30;0.70;;;;;;;;;;5001074;28;20060;-72
2023/09/23 10:05:46;;;;;;;0.90;0.90;;;;;;;;;;5001123;28;20046;-72
2023/09/23 10:08:15;;;;;;;0.63;0.60;;;;;;;;;;5002011;28;20073;-72
2023/09/23 10:10:48;;;;;;;2.03;0.93;;;;;;;;;;5001256;28;20038;-72
2023/09/23 10:13:22;;;;;;;0.80;0.77;;;;;;;;;;5000451;28;20042;-72
2023/09/23 10:15:48;;;;;;;2.33;0.70;;;;;;;;;;5016605;28;20041;-72
2023/09/23 10:18:16;;;;;;;1.23;0.95;;;;;;;;;;5002074;28;20053;-72
2023/09/23 10:20:56;;;;;;;0.95;0.95;;;;;;;;;;5000304;28;20099;-72
2023/09/23 10:23:21;;;;;;;1.33;0.90;;;;;;;;;;5001246;28;20092;-72
2023/09/23 10:25:52;;;;;;;0.90;0.82;;;;;;;;;;5000718;28;20069;-72
2023/09/23 10:28:26;;;;;;;1.00;0.90;;;;;;;;;;5001124;28;20072;-72
2023/09/23 10:31:03;;;;;;;0.90;0.82;;;;;;;;;;4998424;28;20157;-72
2023/09/23 10:33:30;;;;;;;4.80;1.20;;;;;;;;;;4998403;28;20041;-71
2023/09/23 10:35:58;;;;;;;1.38;1.00;;;;;;;;;;4998381;28;20041;-72
2023/09/23 10:38:25;;;;;;;1.02;0.88;;;;;;;;;;4999000;28;20041;-72
2023/09/23 10:40:52;;;;;;;1.38;0.95;;;;;;;;;;4997665;28;20049;-72
2023/09/23 10:43:18;;;;;;;1.15;1.00;;;;;;;;;;4997527;28;20050;-73
2023/09/23 10:45:44;;;;;;;0.77;0.77;;;;;;;;;;4998205;28;20112;-72
2023/09/23 10:48:09;;;;;;;1.38;1.10;;;;;;;;;;4997609;28;20075;-72
2023/09/23 10:50:35;;;;;;;1.50;1.08;;;;;;;;;;4998059;28;20048;-73
2023/09/23 10:53:01;;;;;;;3.45;1.10;;;;;;;;;;4998621;28;20060;-72
2023/09/23 10:55:26;;;;;;;1.10;1.00;;;;;;;;;;4998260;28;20494;-73
2023/09/23 10:57:53;;;;;;;1.67;1.00;;;;;;;;;;4998070;28;20081;-72
2023/09/23 11:00:20;;;;;;;1.27;0.90;;;;;;;;;;4998964;28;20446;-72
2023/09/23 11:02:51;;;;;;;0.80;0.80;;;;;;;;;;4996946;28;20049;-72
2023/09/23 11:05:17;;;;;;;1.13;0.85;;;;;;;;;;5012978;28;20149;-72
2023/09/23 11:07:44;;;;;;;1.20;0.88;;;;;;;;;;4995998;28;20046;-71
2023/09/23 11:10:12;;;;;;;0.93;0.88;;;;;;;;;;4999554;28;20068;-72
2023/09/23 11:12:43;;;;;;;2.40;0.88;;;;;;;;;;4996597;28;20095;-72
2023/09/23 11:15:12;;;;;;;1.50;1.10;;;;;;;;;;4996483;28;20037;-72
2023/09/23 11:17:40;;;;;;;1.00;0.90;;;;;;;;;;4997589;28;20046;-72
2023/09/23 11:20:09;;;;;;;0.93;0.70;;;;;;;;;;4997345;28;20048;-72
2023/09/23 11:22:37;;;;;;;1.77;0.88;;;;;;;;;;4979470;28;20049;-72
2023/09/23 11:25:11;;;;;;;0.80;0.70;;;;;;;;;;4996553;28;20038;-72
2023/09/23 11:27:37;;;;;;;1.25;0.88;;;;;;;;;;4977521;28;20038;-72
2023/09/23 11:30:03;;;;;;;0.60;0.60;;;;;;;;;;4997169;28;20524;-72
2023/09/23 11:32:29;;;;;;;1.00;0.40;;;;;;;;;;5012242;28;20065;-72
2023/09/23 11:34:55;;;;;;;1.40;0.60;;;;;;;;;;4995236;28;20045;-72
2023/09/23 11:37:21;;;;;;;0.77;0.60;;;;;;;;;;4995903;28;20060;-73
2023/09/23 11:39:47;;;;;;;1.40;0.80;;;;;;;;;;4998032;28;20038;-72
2023/09/23 11:42:12;;;;;;;1.55;0.50;;;;;;;;;;4995790;28;21028;-73
2023/09/23 11:44:38;;;;;;;0.60;0.60;;;;;;;;;;4997416;28;20045;-73
2023/09/23 11:47:04;;;;;;;0.60;0.60;;;;;;;;;;4996802;28;20050;-73
2023/09/23 11:49:29;;;;;;;0.63;0.63;;;;;;;;;;4993680;28;20135;-72
2023/09/23 11:51:55;;;;;;;0.93;0.65;;;;;;;;;;4994982;28;20894;-74
2023/09/23 11:54:20;;;;;;;0.75;0.60;;;;;;;;;;4997387;28;20042;-73
2023/09/23 11:56:46;;;;;;;0.95;0.60;;;;;;;;;;4996300;28;20042;-73
2023/09/23 11:59:13;;;;;;;1.55;0.40;;;;;;;;;;4995388;28;20042;-74
2023/09/23 12:01:39;;;;;;;3.33;0.70;;;;;;;;;;4995449;28;20069;-73
2023/09/23 12:04:04;;;;;;;0.60;0.60;;;;;;;;;;4996976;28;20512;-73
2023/09/23 12:06:34;;;;;;;0.50;0.50;;;;;;;;;;4994229;28;20101;-73
2023/09/23 12:09:02;;;;;;;3.28;0.40;;;;;;;;;;4996178;28;20104;-73
2023/09/23 12:11:28;;;;;;;0.70;0.70;;;;;;;;;;4994004;28;20068;-74
2023/09/23 12:13:53;;;;;;;1.13;0.70;;;;;;;;;;4996603;28;20506;-74
2023/09/23 12:16:19;;;;;;;0.70;0.60;;;;;;;;;;5011582;28;20053;-73
2023/09/23 12:18:48;;;;;;;0.85;0.50;;;;;;;;;;4978217;28;20038;-74
2023/09/23 12:21:16;;;;;;;0.50;0.43;;;;;;;;;;4995891;28;20099;-74
2023/09/23 12:23:42;;;;;;;1.58;0.63;;;;;;;;;;4996749;28;20136;-73
2023/09/23 12:26:09;;;;;;;0.60;0.60;;;;;;;;;;4995927;28;20125;-74
2023/09/23 12:28:36;;;;;;;0.45;0.45;;;;;;;;;;4995995;28;20049;-74
2023/09/23 12:31:01;;;;;;;0.73;0.70;;;;;;;;;;4995089;28;20053;-73
2023/09/23 12:33:27;;;;;;;0.50;0.50;;;;;;;;;;4995218;28;20049;-73
2023/09/23 12:35:52;;;;;;;0.55;0.50;;;;;;;;;;4997968;28;20195;-73
2023/09/23 12:38:18;;;;;;;0.50;0.50;;;;;;;;;;4996578;28;20046;-72
2023/09/23 12:40:43;;;;;;;1.40;0.60;;;;;;;;;;4996698;28;20137;-73
2023/09/23 12:43:10;;;;;;;1.02;0.70;;;;;;;;;;4994859;28;20065;-73
2023/09/23 12:45:37;;;;;;;0.50;0.50;;;;;;;;;;4997023;28;20419;-73
2023/09/23 12:48:03;;;;;;;1.45;0.70;;;;;;;;;;4995109;28;20080;-72
2023/09/23 12:50:28;;;;;;;0.93;0.57;;;;;;;;;;4992173;28;20376;-73
2023/09/23 12:52:54;;;;;;;0.93;0.57;;;;;;;;;;4992595;28;20128;-73
2023/09/23 12:55:19;;;;;;;0.50;0.50;;;;;;;;;;4993542;28;20614;-72
2023/09/23 12:57:48;;;;;;;2.90;0.55;;;;;;;;;;4995303;28;20546;-72
2023/09/23 13:00:14;;;;;;;1.52;0.63;;;;;;;;;;4995947;28;20046;-72
2023/09/23 13:02:40;;;;;;;3.33;0.50;;;;;;;;;;4995812;28;20085;-73
2023/09/23 13:05:06;;;;;;;0.38;0.32;;;;;;;;;;5012508;28;20168;-72
2023/09/23 13:07:31;;;;;;;1.10;0.68;;;;;;;;;;4996155;28;20223;-72
2023/09/23 13:09:56;;;;;;;1.23;1.00;;;;;;;;;;4994709;28;20077;-72
2023/09/23 13:12:22;;;;;;;1.45;0.80;;;;;;;;;;4996605;28;20046;-73
2023/09/23 13:14:48;;;;;;;1.48;0.63;;;;;;;;;;4998793;28;20045;-73
2023/09/23 13:17:13;;;;;;;0.30;0.30;;;;;;;;;;5000251;28;20104;-73
2023/09/23 13:19:39;;;;;;;1.35;0.45;;;;;;;;;;4983271;28;20084;-73
2023/09/23 13:22:05;;;;;;;1.05;0.57;;;;;;;;;;5007014;28;20244;-73
2023/09/23 13:24:31;;;;;;;1.02;0.77;;;;;;;;;;5000773;28;20054;-73
2023/09/23 13:26:57;;;;;;;1.00;0.70;;;;;;;;;;4998420;28;20580;-72
2023/09/23 13:29:22;;;;;;;0.45;0.45;;;;;;;;;;4996154;28;20045;-72
2023/09/23 13:31:47;;;;;;;0.57;0.52;;;;;;;;;;5001521;28;20408;-72
2023/09/23 13:34:14;;;;;;;0.38;0.38;;;;;;;;;;5004777;28;20445;-72
2023/09/23 13:36:39;;;;;;;0.73;0.40;;;;;;;;;;4997497;28;20053;-72
2023/09/23 13:39:04;;;;;;;1.00;0.40;;;;;;;;;;4997106;28;20306;-72
2023/09/23 13:41:30;;;;;;;0.57;0.35;;;;;;;;;;4998052;28;20056;-73
2023/09/23 13:43:56;;;;;;;0.40;0.40;;;;;;;;;;4997429;28;20749;-72
2023/09/23 13:46:22;;;;;;;0.73;0.60;;;;;;;;;;4998135;28;20042;-73
2023/09/23 13:48:47;;;;;;;0.60;0.50;;;;;;;;;;4997775;28;21006;-73
2023/09/23 13:51:13;;;;;;;1.13;0.50;;;;;;;;;;4996771;28;20054;-73
2023/09/23 13:53:38;;;;;;;1.27;0.70;;;;;;;;;;4996546;28;20978;-73
2023/09/23 13:56:04;;;;;;;0.70;0.65;;;;;;;;;;4995252;28;20045;-73
2023/09/23 13:58:29;;;;;;;0.47;0.47;;;;;;;;;;4995396;28;20719;-71
2023/09/23 14:00:55;;;;;;;0.52;0.40;;;;;;;;;;4995285;28;20128;-73
2023/09/23 14:03:21;;;;;;;0.75;0.50;;;;;;;;;;4996122;28;20653;-73
2023/09/23 14:05:47;;;;;;;0.43;0.43;;;;;;;;;;4999225;28;21781;-73
2023/09/23 14:08:12;;;;;;;3.50;0.68;;;;;;;;;;4997976;28;20257;-73
2023/09/23 14:10:38;;;;;;;0.50;0.40;;;;;;;;;;5006684;28;20066;-73
2023/09/23 14:13:04;;;;;;;0.50;0.40;;;;;;;;;;5015434;28;20037;-73
2023/09/23 14:15:30;;;;;;;0.50;0.30;;;;;;;;;;4997103;28;20050;-73
2023/09/23 14:17:56;;;;;;;0.50;0.50;;;;;;;;;;5000147;28;20041;-73
2023/09/23 14:20:22;;;;;;;0.80;0.60;;;;;;;;;;4999081;28;20038;-73
2023/09/23 14:22:48;;;;;;;0.70;0.40;;;;;;;;;;5013781;28;20474;-73
2023/09/23 14:25:14;;;;;;;1.20;0.40;;;;;;;;;;4997581;28;20186;-73
2023/09/23 14:27:40;;;;;;;0.57;0.57;;;;;;;;;;4998388;28;20176;-74
2023/09/23 14:30:08;;;;;;;0.50;0.50;;;;;;;;;;4999435;28;20077;-74
2023/09/23 14:32:34;;;;;;;1.08;0.50;;;;;;;;;;5000655;28;20498;-74
2023/09/23 14:35:00;;;;;;;0.30;0.30;;;;;;;;;;4999842;28;20037;-74
2023/09/23 14:37:26;;;;;;;0.57;0.55;;;;;;;;;;4997097;28;20394;-74
2023/09/23 14:39:52;;;;;;;1.17;0.63;;;;;;;;;;5014701;28;20625;-74
2023/09/23 14:42:17;;;;;;;0.68;0.60;;;;;;;;;;4999314;28;20038;-74